Time;durP1;ratioP1;P1;durP2;ratioP2;P2;SDS_P1;SDS_P2;PMS_P1;PMS_P2;Temp;Humidity;BMP_temperature;BMP_pressure;BME280_temperature;BME280_humidity;BME280_pressure;Samples;Min_cycle;Max_cycle;Signal;HPM_P1;HPM_P2
2021/09/28 00:01:15;;;;;;;;;;;;;;;;;;5067678;28;19935;-64
2021/09/28 00:03:42;;;;;;;;;;;;;;;;;;5063790;28;19935;-64
2021/09/28 00:06:09;;;;;;;;;;;;;;;;;;5069123;28;20021;-64
2021/09/28 00:08:37;;;;;;;;;;;;;;;;;;5071001;28;19946;-64
2021/09/28 00:11:04;;;;;;;;;;;;;;;;;;5068157;28;19925;-64
2021/09/28 00:13:31;;;;;;;;;;;;;;;;;;5068003;28;20327;-64
2021/09/28 00:15:58;;;;;;;;;;;;;;;;;;5073803;28;19924;-64
2021/09/28 00:18:26;;;;;;;;;;;;;;;;;;5069464;28;20422;-64
2021/09/28 00:20:53;;;;;;;;;;;;;;;;;;5067201;28;19924;-64
2021/09/28 00:23:20;;;;;;;;;;;;;;;;;;5072439;28;19925;-64
2021/09/28 00:25:48;;;;;;;;;;;;;;;;;;5069602;28;20303;-64
2021/09/28 00:28:15;;;;;;;;;;;;;;;;;;5071146;28;20428;-64
2021/09/28 00:30:43;;;;;;;;;;;;;;;;;;5064276;28;19929;-64
2021/09/28 00:33:09;;;;;;;;;;;;;;;;;;5070390;28;19932;-66
2021/09/28 00:35:36;;;;;;;;;;;;;;;;;;5070153;28;19931;-64
2021/09/28 00:38:03;;;;;;;;;;;;;;;;;;5069955;28;19925;-64
2021/09/28 00:40:31;;;;;;;;;;;;;;;;;;5080294;28;20285;-64
2021/09/28 00:42:58;;;;;;;;;;;;;;;;;;5071860;28;19940;-64
2021/09/28 00:45:25;;;;;;;;;;;;;;;;;;5076331;28;20391;-64
2021/09/28 00:47:52;;;;;;;;;;;;;;;;;;5064200;28;19929;-64
2021/09/28 00:50:19;;;;;;;;;;;;;;;;;;5065670;28;19931;-64
2021/09/28 00:52:46;;;;;;;;;;;;;;;;;;5067236;28;19932;-64
2021/09/28 00:55:13;;;;;;;;;;;;;;;;;;5066495;28;20375;-64
2021/09/28 00:57:40;;;;;;;;;;;;;;;;;;5067747;28;19924;-64
2021/09/28 01:00:09;;;;;;;;;;;;;;;;;;5069729;28;20396;-65
2021/09/28 01:02:36;;;;;;;;;;;;;;;;;;5068386;28;20335;-66
2021/09/28 01:05:03;;;;;;;;;;;;;;;;;;5067518;28;19924;-65
2021/09/28 01:07:30;;;;;;;;;;;;;;;;;;5064050;28;19924;-65
2021/09/28 01:09:57;;;;;;;;;;;;;;;;;;5070486;28;20319;-65
2021/09/28 01:12:24;;;;;;;;;;;;;;;;;;5065734;28;19928;-66
2021/09/28 01:14:51;;;;;;;;;;;;;;;;;;5069732;28;19924;-65
2021/09/28 01:17:18;;;;;;;;;;;;;;;;;;5070704;28;19935;-66
2021/09/28 01:19:45;;;;;;;;;;;;;;;;;;5063891;28;19925;-65
2021/09/28 01:22:12;;;;;;;;;;;;;;;;;;5067323;28;19928;-65
2021/09/28 01:24:39;;;;;;;;;;;;;;;;;;5069804;28;19924;-66
2021/09/28 01:27:06;;;;;;;;;;;;;;;;;;5070363;28;19931;-65
2021/09/28 01:29:33;;;;;;;;;;;;;;;;;;5065447;28;19928;-66
2021/09/28 01:32:00;;;;;;;;;;;;;;;;;;5066621;28;20299;-65
2021/09/28 01:34:27;;;;;;;;;;;;;;;;;;5067717;28;19928;-65
2021/09/28 01:36:54;;;;;;;;;;;;;;;;;;5067846;28;19929;-66
2021/09/28 01:39:21;;;;;;;;;;;;;;;;;;5069656;28;19924;-66
2021/09/28 01:41:48;;;;;;;;;;;;;;;;;;5069075;28;20030;-65
2021/09/28 01:44:15;;;;;;;;;;;;;;;;;;5075189;28;20015;-66
2021/09/28 01:46:42;;;;;;;;;;;;;;;;;;5067900;28;19924;-64
2021/09/28 01:49:08;;;;;;;;;;;;;;;;;;5064880;28;19924;-65
2021/09/28 01:51:35;;;;;;;;;;;;;;;;;;5075120;28;19931;-65
2021/09/28 01:54:02;;;;;;;;;;;;;;;;;;5072176;28;19928;-66
2021/09/28 01:56:29;;;;;;;;;;;;;;;;;;5069250;28;19928;-65
2021/09/28 01:58:56;;;;;;;;;;;;;;;;;;5072804;28;19925;-65
2021/09/28 02:01:23;;;;;;;;;;;;;;;;;;5067945;28;20020;-65
2021/09/28 02:03:50;;;;;;;;;;;;;;;;;;5068360;28;20300;-65
2021/09/28 02:06:17;;;;;;;;;;;;;;;;;;5067851;28;20026;-65
2021/09/28 02:08:44;;;;;;;;;;;;;;;;;;5062991;28;19936;-65
2021/09/28 02:11:11;;;;;;;;;;;;;;;;;;5065466;28;19940;-65
2021/09/28 02:13:38;;;;;;;;;;;;;;;;;;5072278;28;20316;-65
2021/09/28 02:16:05;;;;;;;;;;;;;;;;;;5066714;28;19925;-65
2021/09/28 02:18:32;;;;;;;;;;;;;;;;;;5065617;28;19930;-65
2021/09/28 02:20:59;;;;;;;;;;;;;;;;;;5070499;28;19931;-65
2021/09/28 02:23:26;;;;;;;;;;;;;;;;;;5069132;28;20082;-64
2021/09/28 02:25:53;;;;;;;;;;;;;;;;;;5066390;28;20400;-66
2021/09/28 02:28:20;;;;;;;;;;;;;;;;;;5068916;28;19947;-65
2021/09/28 02:30:47;;;;;;;;;;;;;;;;;;5060471;28;19924;-65
2021/09/28 02:33:13;;;;;;;;;;;;;;;;;;5067752;28;19928;-65
2021/09/28 02:35:40;;;;;;;;;;;;;;;;;;5073131;28;19924;-65
2021/09/28 02:38:07;;;;;;;;;;;;;;;;;;5073792;28;19931;-65
2021/09/28 02:40:34;;;;;;;;;;;;;;;;;;5074052;28;19924;-65
2021/09/28 02:43:01;;;;;;;;;;;;;;;;;;5069982;28;19925;-65
2021/09/28 02:45:28;;;;;;;;;;;;;;;;;;5072867;28;19924;-66
2021/09/28 02:47:55;;;;;;;;;;;;;;;;;;5067878;28;19931;-66
2021/09/28 02:50:22;;;;;;;;;;;;;;;;;;5064959;28;19924;-66
2021/09/28 02:52:49;;;;;;;;;;;;;;;;;;5066125;28;19935;-66
2021/09/28 02:55:16;;;;;;;;;;;;;;;;;;5079486;28;20372;-66
2021/09/28 02:57:43;;;;;;;;;;;;;;;;;;5076614;28;19934;-66
2021/09/28 03:00:10;;;;;;;;;;;;;;;;;;5066272;28;19924;-66
2021/09/28 03:02:37;;;;;;;;;;;;;;;;;;5067418;28;20399;-66
2021/09/28 03:05:03;;;;;;;;;;;;;;;;;;5069697;28;19929;-66
2021/09/28 03:07:30;;;;;;;;;;;;;;;;;;5067707;28;19924;-65
2021/09/28 03:09:57;;;;;;;;;;;;;;;;;;5063944;28;19925;-64
2021/09/28 03:12:24;;;;;;;;;;;;;;;;;;5069124;28;19928;-65
2021/09/28 03:14:51;;;;;;;;;;;;;;;;;;5076293;28;19924;-64
2021/09/28 03:17:18;;;;;;;;;;;;;;;;;;5077556;28;19931;-65
2021/09/28 03:19:45;;;;;;;;;;;;;;;;;;5068633;28;19933;-66
2021/09/28 03:22:12;;;;;;;;;;;;;;;;;;5068354;28;19924;-66
2021/09/28 03:24:39;;;;;;;;;;;;;;;;;;5069281;28;20327;-65
2021/09/28 03:27:06;;;;;;;;;;;;;;;;;;5072077;28;19936;-65
2021/09/28 03:29:32;;;;;;;;;;;;;;;;;;5068649;28;19929;-66
2021/09/28 03:31:59;;;;;;;;;;;;;;;;;;5071890;28;19932;-65
2021/09/28 03:34:26;;;;;;;;;;;;;;;;;;5072848;28;19925;-65
2021/09/28 03:36:53;;;;;;;;;;;;;;;;;;5077972;28;19943;-65
2021/09/28 03:39:20;;;;;;;;;;;;;;;;;;5071050;28;20011;-65
2021/09/28 03:41:48;;;;;;;;;;;;;;;;;;5075016;28;20296;-66
2021/09/28 03:44:15;;;;;;;;;;;;;;;;;;5104973;22;19924;-66
2021/09/28 03:46:42;;;;;;;;;;;;;;;;;;5090885;28;19938;-66
2021/09/28 03:49:09;;;;;;;;;;;;;;;;;;5088856;28;19959;-66
2021/09/28 03:51:36;;;;;;;;;;;;;;;;;;5088229;28;19931;-66
2021/09/28 03:54:02;;;;;;;;;;;;;;;;;;5087275;28;20418;-65
2021/09/28 03:56:29;;;;;;;;;;;;;;;;;;5090336;28;19931;-66
2021/09/28 03:58:56;;;;;;;;;;;;;;;;;;5093445;28;19931;-65
2021/09/28 04:01:23;;;;;;;;;;;;;;;;;;5087385;28;19963;-65
2021/09/28 04:03:50;;;;;;;;;;;;;;;;;;5088045;28;19950;-65
2021/09/28 04:06:17;;;;;;;;;;;;;;;;;;5091091;28;19932;-65
2021/09/28 04:08:44;;;;;;;;;;;;;;;;;;5087784;28;19924;-65
2021/09/28 04:11:11;;;;;;;;;;;;;;;;;;5093753;28;20399;-65
2021/09/28 04:13:39;;;;;;;;;;;;;;;;;;5088971;28;19931;-64
2021/09/28 04:16:08;;;;;;;;;;;;;;;;;;5091983;28;20483;-64
2021/09/28 04:18:34;;;;;;;;;;;;;;;;;;5088435;28;20375;-65
2021/09/28 04:21:01;;;;;;;;;;;;;;;;;;5093131;28;19925;-65
2021/09/28 04:23:28;;;;;;;;;;;;;;;;;;5088741;28;20384;-65
2021/09/28 04:25:55;;;;;;;;;;;;;;;;;;5087859;28;20405;-65
2021/09/28 04:28:22;;;;;;;;;;;;;;;;;;5088331;28;19940;-65
2021/09/28 04:30:49;;;;;;;;;;;;;;;;;;5089349;28;19946;-64
2021/09/28 04:33:16;;;;;;;;;;;;;;;;;;5083062;28;19944;-66
2021/09/28 04:35:43;;;;;;;;;;;;;;;;;;5091789;28;19927;-68
2021/09/28 04:38:10;;;;;;;;;;;;;;;;;;5088804;28;20359;-67
2021/09/28 04:40:37;;;;;;;;;;;;;;;;;;5088708;28;19928;-68
2021/09/28 04:43:04;;;;;;;;;;;;;;;;;;5091337;28;20096;-68
2021/09/28 04:45:31;;;;;;;;;;;;;;;;;;5088312;28;19932;-68
2021/09/28 04:47:58;;;;;;;;;;;;;;;;;;5091922;28;20031;-68
2021/09/28 04:50:25;;;;;;;;;;;;;;;;;;5092376;28;19931;-68
2021/09/28 04:52:52;;;;;;;;;;;;;;;;;;5089907;28;19924;-68
2021/09/28 04:55:19;;;;;;;;;;;;;;;;;;5085965;28;19931;-68
2021/09/28 04:57:46;;;;;;;;;;;;;;;;;;5092656;28;19928;-68
2021/09/28 05:00:13;;;;;;;;;;;;;;;;;;5092951;28;19924;-68
2021/09/28 05:02:40;;;;;;;;;;;;;;;;;;5090147;28;20363;-69
2021/09/28 05:05:07;;;;;;;;;;;;;;;;;;5087345;28;19934;-66
2021/09/28 05:07:33;;;;;;;;;;;;;;;;;;5089194;28;19924;-66
2021/09/28 05:10:00;;;;;;;;;;;;;;;;;;5092121;28;19924;-65
2021/09/28 05:12:28;;;;;;;;;;;;;;;;;;5088282;28;19930;-64
2021/09/28 05:14:56;;;;;;;;;;;;;;;;;;5090973;28;19925;-64
2021/09/28 05:17:23;;;;;;;;;;;;;;;;;;5090197;28;20291;-64
2021/09/28 05:19:50;;;;;;;;;;;;;;;;;;5093461;28;19924;-64
2021/09/28 05:22:17;;;;;;;;;;;;;;;;;;5088722;28;19931;-65
2021/09/28 05:24:44;;;;;;;;;;;;;;;;;;5087726;28;19947;-66
2021/09/28 05:27:11;;;;;;;;;;;;;;;;;;5091498;28;19932;-66
2021/09/28 05:29:38;;;;;;;;;;;;;;;;;;5090174;28;19938;-66
2021/09/28 05:32:05;;;;;;;;;;;;;;;;;;5090015;28;19934;-65
2021/09/28 05:34:32;;;;;;;;;;;;;;;;;;5085560;28;20379;-66
2021/09/28 05:36:59;;;;;;;;;;;;;;;;;;5089125;28;19925;-66
2021/09/28 05:39:26;;;;;;;;;;;;;;;;;;5092691;28;19931;-65
2021/09/28 05:41:53;;;;;;;;;;;;;;;;;;5089871;28;19928;-64
2021/09/28 05:44:20;;;;;;;;;;;;;;;;;;5091773;28;19924;-65
2021/09/28 05:46:47;;;;;;;;;;;;;;;;;;5091770;28;19931;-66
2021/09/28 05:49:14;;;;;;;;;;;;;;;;;;5091660;28;19975;-65
2021/09/28 05:51:41;;;;;;;;;;;;;;;;;;5090750;28;19924;-65
2021/09/28 05:54:09;;;;;;;;;;;;;;;;;;5087614;28;19924;-64
2021/09/28 05:56:36;;;;;;;;;;;;;;;;;;5089462;28;19924;-65
2021/09/28 05:59:03;;;;;;;;;;;;;;;;;;5089901;28;19928;-65
2021/09/28 06:01:30;;;;;;;;;;;;;;;;;;5090098;28;19935;-65
2021/09/28 06:03:57;;;;;;;;;;;;;;;;;;5090487;28;19931;-64
2021/09/28 06:06:27;;;;;;;;;;;;;;;;;;5085546;28;19924;-66
2021/09/28 06:08:54;;;;;;;;;;;;;;;;;;5086461;28;19927;-64
2021/09/28 06:11:21;;;;;;;;;;;;;;;;;;5088281;28;19938;-66
2021/09/28 06:13:48;;;;;;;;;;;;;;;;;;5088444;28;19934;-66
2021/09/28 06:16:15;;;;;;;;;;;;;;;;;;5088641;28;19924;-66
2021/09/28 06:18:42;;;;;;;;;;;;;;;;;;5091849;28;20014;-66
2021/09/28 06:21:09;;;;;;;;;;;;;;;;;;5090504;28;19928;-66
2021/09/28 06:23:36;;;;;;;;;;;;;;;;;;5088190;28;19931;-66
2021/09/28 06:26:03;;;;;;;;;;;;;;;;;;5087686;28;20026;-66
2021/09/28 06:28:30;;;;;;;;;;;;;;;;;;5090519;28;20402;-66
2021/09/28 06:30:57;;;;;;;;;;;;;;;;;;5088832;28;19924;-67
2021/09/28 06:33:24;;;;;;;;;;;;;;;;;;5095937;28;19924;-63
2021/09/28 06:35:51;;;;;;;;;;;;;;;;;;5088464;28;19931;-64
2021/09/28 06:38:18;;;;;;;;;;;;;;;;;;5088593;28;19930;-64
2021/09/28 06:40:45;;;;;;;;;;;;;;;;;;5088409;28;19931;-64
2021/09/28 06:43:12;;;;;;;;;;;;;;;;;;5089751;28;20395;-64
2021/09/28 06:45:39;;;;;;;;;;;;;;;;;;5091207;28;19924;-64
2021/09/28 06:48:06;;;;;;;;;;;;;;;;;;5090793;28;19924;-64
2021/09/28 06:50:33;;;;;;;;;;;;;;;;;;5091313;28;19925;-64
2021/09/28 06:52:59;;;;;;;;;;;;;;;;;;5090741;28;19946;-64
2021/09/28 06:55:26;;;;;;;;;;;;;;;;;;5090966;28;19924;-65
2021/09/28 06:57:53;;;;;;;;;;;;;;;;;;5086564;28;19931;-64
2021/09/28 07:00:20;;;;;;;;;;;;;;;;;;5090524;28;19928;-64
2021/09/28 07:02:47;;;;;;;;;;;;;;;;;;5090915;28;19931;-64
2021/09/28 07:05:15;;;;;;;;;;;;;;;;;;5090814;28;19930;-64
2021/09/28 07:07:41;;;;;;;;;;;;;;;;;;5090664;28;19924;-65
2021/09/28 07:10:08;;;;;;;;;;;;;;;;;;5090699;28;19924;-64
2021/09/28 07:12:35;;;;;;;;;;;;;;;;;;5090382;28;19924;-64
2021/09/28 07:15:03;;;;;;;;;;;;;;;;;;5090905;28;20319;-64
2021/09/28 07:17:30;;;;;;;;;;;;;;;;;;5090625;28;19931;-64
2021/09/28 07:19:56;;;;;;;;;;;;;;;;;;5090776;28;19936;-64
2021/09/28 07:22:26;;;;;;;;;;;;;;;;;;5091097;28;20380;-64
2021/09/28 07:24:53;;;;;;;;;;;;;;;;;;5085857;28;19928;-64
2021/09/28 07:27:20;;;;;;;;;;;;;;;;;;5089866;28;20437;-64
2021/09/28 07:29:47;;;;;;;;;;;;;;;;;;5089433;28;19924;-65
2021/09/28 07:32:14;;;;;;;;;;;;;;;;;;5086333;28;19950;-64
2021/09/28 07:34:41;;;;;;;;;;;;;;;;;;5087848;28;19985;-65
2021/09/28 07:37:08;;;;;;;;;;;;;;;;;;5085600;28;19934;-64
2021/09/28 07:39:35;;;;;;;;;;;;;;;;;;5081614;28;19951;-64
2021/09/28 07:42:02;;;;;;;;;;;;;;;;;;5093431;28;20292;-64
2021/09/28 07:44:29;;;;;;;;;;;;;;;;;;5089806;28;19931;-65
2021/09/28 07:46:58;;;;;;;;;;;;;;;;;;5090727;28;19924;-64
2021/09/28 07:49:25;;;;;;;;;;;;;;;;;;5093614;28;20979;-65
2021/09/28 07:51:52;;;;;;;;;;;;;;;;;;5093898;28;19935;-65
2021/09/28 07:54:18;;;;;;;;;;;;;;;;;;5093564;28;19924;-64
2021/09/28 07:56:45;;;;;;;;;;;;;;;;;;5094220;28;19924;-65
2021/09/28 07:59:12;;;;;;;;;;;;;;;;;;5091447;28;20010;-65
2021/09/28 08:01:39;;;;;;;;;;;;;;;;;;5092070;28;19924;-65
2021/09/28 08:04:06;;;;;;;;;;;;;;;;;;5090355;28;19924;-64
2021/09/28 08:06:33;;;;;;;;;;;;;;;;;;5089632;28;19953;-64
2021/09/28 08:09:00;;;;;;;;;;;;;;;;;;5088180;28;19946;-64
2021/09/28 08:11:27;;;;;;;;;;;;;;;;;;5089781;28;19924;-65
2021/09/28 08:13:54;;;;;;;;;;;;;;;;;;5090592;28;19924;-65
2021/09/28 08:16:21;;;;;;;;;;;;;;;;;;5092349;28;19926;-65
2021/09/28 08:18:48;;;;;;;;;;;;;;;;;;5089883;28;19965;-65
2021/09/28 08:21:15;;;;;;;;;;;;;;;;;;5092177;28;19931;-64
2021/09/28 08:23:42;;;;;;;;;;;;;;;;;;5093015;28;19934;-65
2021/09/28 08:29:09;;;;;;;;;;;;;;;;;;5092903;28;19990;-65
2021/09/28 08:31:36;;;;;;;;;;;;;;;;;;5083982;28;20459;-65
2021/09/28 08:34:04;;;;;;;;;;;;;;;;;;5090103;28;19924;-65
2021/09/28 08:36:31;;;;;;;;;;;;;;;;;;5091528;28;19928;-64
2021/09/28 08:38:58;;;;;;;;;;;;;;;;;;5083907;28;20411;-64
2021/09/28 08:41:25;;;;;;;;;;;;;;;;;;5089767;28;19924;-64
2021/09/28 08:43:52;;;;;;;;;;;;;;;;;;5084041;28;19994;-65
2021/09/28 08:46:19;;;;;;;;;;;;;;;;;;5091352;28;19973;-65
2021/09/28 08:48:46;;;;;;;;;;;;;;;;;;5091996;28;19934;-65
2021/09/28 08:51:13;;;;;;;;;;;;;;;;;;5088057;28;20361;-65
2021/09/28 08:53:40;;;;;;;;;;;;;;;;;;5090501;28;19924;-65
2021/09/28 08:56:07;;;;;;;;;;;;;;;;;;5090535;28;19928;-65
2021/09/28 08:58:34;;;;;;;;;;;;;;;;;;5092857;28;20334;-64
2021/09/28 09:01:01;;;;;;;;;;;;;;;;;;5091649;28;19924;-65
2021/09/28 09:03:28;;;;;;;;;;;;;;;;;;5091466;28;20023;-65
2021/09/28 09:05:55;;;;;;;;;;;;;;;;;;5090426;28;19936;-65
2021/09/28 09:08:22;;;;;;;;;;;;;;;;;;5091929;28;19928;-65
2021/09/28 09:10:49;;;;;;;;;;;;;;;;;;5089776;28;19924;-65
2021/09/28 09:13:16;;;;;;;;;;;;;;;;;;5085596;28;20347;-65
2021/09/28 09:15:43;;;;;;;;;;;;;;;;;;5090320;28;20376;-65
2021/09/28 09:18:11;;;;;;;;;;;;;;;;;;5088893;28;19929;-65
2021/09/28 09:20:38;;;;;;;;;;;;;;;;;;5089740;28;19924;-65
2021/09/28 09:23:05;;;;;;;;;;;;;;;;;;5087984;28;19925;-64
2021/09/28 09:25:32;;;;;;;;;;;;;;;;;;5090955;28;19931;-64
2021/09/28 09:27:59;;;;;;;;;;;;;;;;;;5085864;28;19924;-65
2021/09/28 09:30:26;;;;;;;;;;;;;;;;;;5091575;28;20475;-64
2021/09/28 09:32:55;;;;;;;;;;;;;;;;;;5090933;28;19971;-65
2021/09/28 09:35:22;;;;;;;;;;;;;;;;;;5089050;28;19928;-65
2021/09/28 09:37:49;;;;;;;;;;;;;;;;;;5089987;28;19934;-65
2021/09/28 09:40:16;;;;;;;;;;;;;;;;;;5086071;28;19925;-65
2021/09/28 09:42:43;;;;;;;;;;;;;;;;;;5088559;28;20212;-66
2021/09/28 09:45:10;;;;;;;;;;;;;;;;;;5087619;28;20392;-65
2021/09/28 09:47:38;;;;;;;;;;;;;;;;;;5091860;28;19930;-66
2021/09/28 09:50:05;;;;;;;;;;;;;;;;;;5088408;28;19924;-65
2021/09/28 09:52:33;;;;;;;;;;;;;;;;;;5088908;28;19924;-65
2021/09/28 09:55:00;;;;;;;;;;;;;;;;;;5087304;28;20406;-66
2021/09/28 09:57:27;;;;;;;;;;;;;;;;;;5090453;28;20352;-65
2021/09/28 09:59:54;;;;;;;;;;;;;;;;;;5091528;28;19924;-66
2021/09/28 10:02:23;;;;;;;;;;;;;;;;;;5090025;28;19924;-65
2021/09/28 10:04:51;;;;;;;;;;;;;;;;;;5089823;28;19924;-65
2021/09/28 10:07:18;;;;;;;;;;;;;;;;;;5088381;28;20340;-66
2021/09/28 10:09:45;;;;;;;;;;;;;;;;;;5087094;28;19931;-65
2021/09/28 10:12:13;;;;;;;;;;;;;;;;;;5090700;28;19932;-65
2021/09/28 10:14:41;;;;;;;;;;;;;;;;;;5089225;28;19928;-65
2021/09/28 10:17:07;;;;;;;;;;;;;;;;;;5088976;28;20269;-65
2021/09/28 10:19:40;;;;;;;;;;;;;;;;;;5093123;28;19931;-65
2021/09/28 10:22:07;;;;;;;;;;;;;;;;;;5087564;28;19936;-65
2021/09/28 10:24:34;;;;;;;;;;;;;;;;;;5087277;28;19944;-65
2021/09/28 10:27:01;;;;;;;;;;;;;;;;;;5079344;28;20368;-65
2021/09/28 10:29:28;;;;;;;;;;;;;;;;;;5082274;28;19938;-65
2021/09/28 10:31:55;;;;;;;;;;;;;;;;;;5089815;28;19924;-65
2021/09/28 10:34:22;;;;;;;;;;;;;;;;;;5087538;28;19930;-65
2021/09/28 10:36:48;;;;;;;;;;;;;;;;;;5085781;28;20312;-65
2021/09/28 10:39:15;;;;;;;;;;;;;;;;;;5088287;28;20010;-65
2021/09/28 10:41:43;;;;;;;;;;;;;;;;;;5085074;28;19924;-65
2021/09/28 10:44:10;;;;;;;;;;;;;;;;;;5089321;28;19924;-65
2021/09/28 10:46:37;;;;;;;;;;;;;;;;;;5091231;28;20306;-65
2021/09/28 10:49:04;;;;;;;;;;;;;;;;;;5087918;28;19932;-65
2021/09/28 10:51:31;;;;;;;;;;;;;;;;;;5083358;28;19931;-65
2021/09/28 10:53:58;;;;;;;;;;;;;;;;;;5083504;28;19925;-65
2021/09/28 10:56:25;;;;;;;;;;;;;;;;;;5090743;28;19931;-65
2021/09/28 10:58:52;;;;;;;;;;;;;;;;;;5090347;28;19967;-65
2021/09/28 11:01:19;;;;;;;;;;;;;;;;;;5091370;28;20152;-65
2021/09/28 11:03:48;;;;;;;;;;;;;;;;;;5087514;28;19928;-65
2021/09/28 11:06:16;;;;;;;;;;;;;;;;;;5086930;28;20349;-66
2021/09/28 11:08:43;;;;;;;;;;;;;;;;;;5090329;28;20015;-65
2021/09/28 11:11:09;;;;;;;;;;;;;;;;;;5089433;28;19930;-65
2021/09/28 11:13:37;;;;;;;;;;;;;;;;;;5084518;28;19924;-65
2021/09/28 11:16:04;;;;;;;;;;;;;;;;;;5087310;28;19928;-65
2021/09/28 11:18:31;;;;;;;;;;;;;;;;;;5092733;28;19924;-66
2021/09/28 11:20:58;;;;;;;;;;;;;;;;;;5087320;28;19924;-65
2021/09/28 11:23:25;;;;;;;;;;;;;;;;;;5093056;28;19928;-66
2021/09/28 11:25:55;;;;;;;;;;;;;;;;;;5089948;28;19927;-65
2021/09/28 11:28:23;;;;;;;;;;;;;;;;;;5092658;28;19935;-65
2021/09/28 11:30:50;;;;;;;;;;;;;;;;;;5092393;28;19982;-65
2021/09/28 11:33:17;;;;;;;;;;;;;;;;;;5088505;28;20439;-65
2021/09/28 11:35:44;;;;;;;;;;;;;;;;;;5092667;28;19924;-65
2021/09/28 11:38:11;;;;;;;;;;;;;;;;;;5092854;28;19932;-66
2021/09/28 11:40:39;;;;;;;;;;;;;;;;;;5092875;28;19924;-66
2021/09/28 11:43:06;;;;;;;;;;;;;;;;;;5090579;28;20307;-66
2021/09/28 11:45:33;;;;;;;;;;;;;;;;;;5092672;28;19924;-65
2021/09/28 11:48:00;;;;;;;;;;;;;;;;;;5087390;28;19924;-66
2021/09/28 11:50:27;;;;;;;;;;;;;;;;;;5088879;28;19930;-66
2021/09/28 11:52:54;;;;;;;;;;;;;;;;;;5086274;28;20300;-65
2021/09/28 11:55:21;;;;;;;;;;;;;;;;;;5087513;28;20410;-66
2021/09/28 11:57:48;;;;;;;;;;;;;;;;;;5088207;28;20392;-66
2021/09/28 12:00:15;;;;;;;;;;;;;;;;;;5091680;28;20381;-65
2021/09/28 12:02:42;;;;;;;;;;;;;;;;;;5087125;28;20407;-64
2021/09/28 12:05:26;;;;;;;;;;;;;;;;;;5091882;28;19950;-66
2021/09/28 12:08:03;;;;;;;;;;;;;;;;;;5090530;28;19934;-66
2021/09/28 12:10:30;;;;;;;;;;;;;;;;;;5090940;28;20379;-66
2021/09/28 12:12:57;;;;;;;;;;;;;;;;;;5091245;28;20024;-64
2021/09/28 12:15:24;;;;;;;;;;;;;;;;;;5090752;28;19931;-66
2021/09/28 12:17:51;;;;;;;;;;;;;;;;;;5088580;28;19924;-64
2021/09/28 12:20:18;;;;;;;;;;;;;;;;;;5092667;28;19924;-66
2021/09/28 12:22:45;;;;;;;;;;;;;;;;;;5091626;28;19927;-66
2021/09/28 12:25:12;;;;;;;;;;;;;;;;;;5092842;28;20384;-66
2021/09/28 12:27:39;;;;;;;;;;;;;;;;;;5092669;28;20350;-64
2021/09/28 12:30:06;;;;;;;;;;;;;;;;;;5087411;28;19928;-65
2021/09/28 12:32:33;;;;;;;;;;;;;;;;;;5090814;28;20418;-66
2021/09/28 12:35:00;;;;;;;;;;;;;;;;;;5093796;28;19924;-66
2021/09/28 12:37:27;;;;;;;;;;;;;;;;;;5084148;28;19925;-66
2021/09/28 12:39:54;;;;;;;;;;;;;;;;;;5091640;28;19924;-66
2021/09/28 12:42:21;;;;;;;;;;;;;;;;;;5090673;28;19924;-66
2021/09/28 12:44:48;;;;;;;;;;;;;;;;;;5091193;28;19947;-65
2021/09/28 12:47:15;;;;;;;;;;;;;;;;;;5092433;28;19928;-66
2021/09/28 12:49:42;;;;;;;;;;;;;;;;;;5084908;28;20210;-66
2021/09/28 12:52:09;;;;;;;;;;;;;;;;;;5089997;28;19924;-65
2021/09/28 12:54:36;;;;;;;;;;;;;;;;;;5092362;28;19928;-66
2021/09/28 12:57:02;;;;;;;;;;;;;;;;;;5093025;28;19924;-66
2021/09/28 12:59:29;;;;;;;;;;;;;;;;;;5091903;28;19924;-66
2021/09/28 13:01:56;;;;;;;;;;;;;;;;;;5093830;28;19931;-64
2021/09/28 13:04:23;;;;;;;;;;;;;;;;;;5090475;28;19938;-66
2021/09/28 13:06:54;;;;;;;;;;;;;;;;;;5088401;28;19924;-66
2021/09/28 13:09:21;;;;;;;;;;;;;;;;;;5089805;28;19965;-66
2021/09/28 13:11:48;;;;;;;;;;;;;;;;;;5087013;28;19924;-66
2021/09/28 13:14:15;;;;;;;;;;;;;;;;;;5090484;28;19934;-66
2021/09/28 13:16:42;;;;;;;;;;;;;;;;;;5089790;28;19931;-66
2021/09/28 13:19:09;;;;;;;;;;;;;;;;;;5092424;28;19924;-63
2021/09/28 13:21:36;;;;;;;;;;;;;;;;;;5092287;28;20273;-66
2021/09/28 13:24:03;;;;;;;;;;;;;;;;;;5089975;28;19931;-65
2021/09/28 13:26:30;;;;;;;;;;;;;;;;;;5092365;28;20019;-66
2021/09/28 13:28:57;;;;;;;;;;;;;;;;;;5089587;28;19931;-64
2021/09/28 13:31:24;;;;;;;;;;;;;;;;;;5090383;28;19934;-66
2021/09/28 13:33:51;;;;;;;;;;;;;;;;;;5090975;28;20015;-66
2021/09/28 13:36:18;;;;;;;;;;;;;;;;;;5085606;28;19946;-66
2021/09/28 13:38:45;;;;;;;;;;;;;;;;;;5091016;28;19924;-66
2021/09/28 13:41:12;;;;;;;;;;;;;;;;;;5089858;28;20312;-65
2021/09/28 13:43:38;;;;;;;;;;;;;;;;;;5087548;28;19930;-66
2021/09/28 13:46:06;;;;;;;;;;;;;;;;;;5085847;28;19928;-65
2021/09/28 13:48:33;;;;;;;;;;;;;;;;;;5083247;28;19924;-66
2021/09/28 13:51:00;;;;;;;;;;;;;;;;;;5090607;28;20010;-66
2021/09/28 13:53:27;;;;;;;;;;;;;;;;;;5091480;28;19924;-65
2021/09/28 13:55:54;;;;;;;;;;;;;;;;;;5091800;28;19924;-66
2021/09/28 13:58:21;;;;;;;;;;;;;;;;;;5091499;28;20407;-65
2021/09/28 14:00:48;;;;;;;;;;;;;;;;;;5087369;28;19924;-66
2021/09/28 14:03:15;;;;;;;;;;;;;;;;;;5083921;28;20010;-66
2021/09/28 14:05:42;;;;;;;;;;;;;;;;;;5090757;28;19924;-65
2021/09/28 14:08:09;;;;;;;;;;;;;;;;;;5091618;28;19931;-65
2021/09/28 14:10:36;;;;;;;;;;;;;;;;;;5091140;28;19924;-66
2021/09/28 14:13:03;;;;;;;;;;;;;;;;;;5087160;28;19926;-65
2021/09/28 14:15:31;;;;;;;;;;;;;;;;;;5089712;28;19924;-66
2021/09/28 14:17:58;;;;;;;;;;;;;;;;;;5090775;28;20347;-66
2021/09/28 14:20:25;;;;;;;;;;;;;;;;;;5089130;28;20015;-66
2021/09/28 14:22:52;;;;;;;;;;;;;;;;;;5085556;28;19924;-66
2021/09/28 14:25:20;;;;;;;;;;;;;;;;;;5089239;28;20023;-66
2021/09/28 14:27:46;;;;;;;;;;;;;;;;;;5088075;28;19985;-64
2021/09/28 14:30:13;;;;;;;;;;;;;;;;;;5090215;28;19924;-66
2021/09/28 14:32:41;;;;;;;;;;;;;;;;;;5090159;28;20007;-67
2021/09/28 14:35:08;;;;;;;;;;;;;;;;;;5088689;28;19924;-66
2021/09/28 14:37:36;;;;;;;;;;;;;;;;;;5090993;28;19924;-66
2021/09/28 14:40:03;;;;;;;;;;;;;;;;;;5088040;28;20388;-66
2021/09/28 14:42:30;;;;;;;;;;;;;;;;;;5089651;28;20292;-65
2021/09/28 14:44:57;;;;;;;;;;;;;;;;;;5088532;28;19931;-66
2021/09/28 14:47:24;;;;;;;;;;;;;;;;;;5089157;28;19930;-65
2021/09/28 14:49:50;;;;;;;;;;;;;;;;;;5086035;28;19970;-66
2021/09/28 14:52:17;;;;;;;;;;;;;;;;;;5083264;28;19924;-65
2021/09/28 14:54:44;;;;;;;;;;;;;;;;;;5090131;28;20298;-66
2021/09/28 14:57:11;;;;;;;;;;;;;;;;;;5090349;28;19932;-64
2021/09/28 14:59:38;;;;;;;;;;;;;;;;;;5094896;28;19946;-66
2021/09/28 15:02:05;;;;;;;;;;;;;;;;;;5094366;28;20011;-66
2021/09/28 15:04:32;;;;;;;;;;;;;;;;;;5097070;28;19969;-66
2021/09/28 15:06:59;;;;;;;;;;;;;;;;;;5093529;28;19931;-66
2021/09/28 15:09:26;;;;;;;;;;;;;;;;;;5093215;28;19924;-65
2021/09/28 15:11:53;;;;;;;;;;;;;;;;;;5093575;28;19925;-66
2021/09/28 15:14:20;;;;;;;;;;;;;;;;;;5091470;28;20388;-66
2021/09/28 15:16:47;;;;;;;;;;;;;;;;;;5090240;28;19924;-66
2021/09/28 15:19:14;;;;;;;;;;;;;;;;;;5091919;28;19928;-66
2021/09/28 15:21:41;;;;;;;;;;;;;;;;;;5093224;28;20011;-67
2021/09/28 15:24:08;;;;;;;;;;;;;;;;;;5086815;28;19930;-67
2021/09/28 15:26:36;;;;;;;;;;;;;;;;;;5092954;28;20349;-67
2021/09/28 15:29:03;;;;;;;;;;;;;;;;;;5083910;28;19924;-67
2021/09/28 15:31:30;;;;;;;;;;;;;;;;;;5092338;28;19932;-65
2021/09/28 15:33:57;;;;;;;;;;;;;;;;;;5091194;28;19925;-67
2021/09/28 15:36:24;;;;;;;;;;;;;;;;;;5093840;28;19930;-67
2021/09/28 15:38:51;;;;;;;;;;;;;;;;;;5087048;28;19939;-66
2021/09/28 15:41:18;;;;;;;;;;;;;;;;;;5088145;28;19924;-67
2021/09/28 15:43:45;;;;;;;;;;;;;;;;;;5113051;22;20323;-72
2021/09/28 15:46:12;;;;;;;;;;;;;;;;;;5094114;28;19931;-71
2021/09/28 15:48:39;;;;;;;;;;;;;;;;;;5092463;28;20030;-69
2021/09/28 15:51:06;;;;;;;;;;;;;;;;;;5089358;28;19923;-69
2021/09/28 15:53:34;;;;;;;;;;;;;;;;;;5087497;28;20364;-69
2021/09/28 15:56:01;;;;;;;;;;;;;;;;;;5082912;28;19925;-70
2021/09/28 15:58:29;;;;;;;;;;;;;;;;;;5090807;28;19936;-70
2021/09/28 16:00:56;;;;;;;;;;;;;;;;;;5093029;28;19924;-71
2021/09/28 16:03:23;;;;;;;;;;;;;;;;;;5090414;28;19934;-72
2021/09/28 16:05:50;;;;;;;;;;;;;;;;;;5092476;28;19931;-72
2021/09/28 16:08:18;;;;;;;;;;;;;;;;;;5087674;28;19931;-70
2021/09/28 16:10:45;;;;;;;;;;;;;;;;;;5089610;28;20537;-71
2021/09/28 16:13:13;;;;;;;;;;;;;;;;;;5089775;28;19934;-71
2021/09/28 16:15:40;;;;;;;;;;;;;;;;;;5091830;28;19925;-71
2021/09/28 16:18:08;;;;;;;;;;;;;;;;;;5092078;28;19928;-71
2021/09/28 16:20:35;;;;;;;;;;;;;;;;;;5089963;28;19931;-71
2021/09/28 16:23:02;;;;;;;;;;;;;;;;;;5091298;28;19935;-70
2021/09/28 16:25:29;;;;;;;;;;;;;;;;;;5090423;28;20019;-70
2021/09/28 16:27:56;;;;;;;;;;;;;;;;;;5091574;28;19983;-70
2021/09/28 16:30:23;;;;;;;;;;;;;;;;;;5091856;28;19934;-71
2021/09/28 16:32:50;;;;;;;;;;;;;;;;;;5091807;28;20307;-70
2021/09/28 16:35:17;;;;;;;;;;;;;;;;;;5088595;28;19924;-72
2021/09/28 16:37:44;;;;;;;;;;;;;;;;;;5089624;28;19928;-72
2021/09/28 16:40:11;;;;;;;;;;;;;;;;;;5091481;28;19927;-72
2021/09/28 16:42:38;;;;;;;;;;;;;;;;;;5087571;28;20007;-70
2021/09/28 16:45:05;;;;;;;;;;;;;;;;;;5090926;28;19935;-71
2021/09/28 16:47:32;;;;;;;;;;;;;;;;;;5087263;28;20006;-73